sensor_id;sensor_type;location;lat;lon;timestamp;temperature;humidity
52481;DHT22;38393;52.404;13.532;2023-04-15T00:02:23;8.60;99.90
52481;DHT22;38393;52.404;13.532;2023-04-15T00:04:48;8.60;99.90
52481;DHT22;38393;52.404;13.532;2023-04-15T00:07:14;8.60;99.90
52481;DHT22;38393;52.404;13.532;2023-04-15T00:09:41;8.60;99.90
52481;DHT22;38393;52.404;13.532;2023-04-15T00:12:07;8.50;99.90
52481;DHT22;38393;52.404;13.532;2023-04-15T00:14:34;8.60;99.90
52481;DHT22;38393;52.404;13.532;2023-04-15T00:17:00;8.60;99.90
52481;DHT22;38393;52.404;13.532;2023-04-15T00:19:25;8.60;99.90
52481;DHT22;38393;52.404;13.532;2023-04-15T00:21:51;8.60;99.90
52481;DHT22;38393;52.404;13.532;2023-04-15T00:24:16;8.50;99.90
52481;DHT22;38393;52.404;13.532;2023-04-15T00:26:42;8.60;99.90
52481;DHT22;38393;52.404;13.532;2023-04-15T00:29:07;8.50;99.90
52481;DHT22;38393;52.404;13.532;2023-04-15T00:31:33;8.60;99.90
52481;DHT22;38393;52.404;13.532;2023-04-15T00:33:58;8.50;99.90
52481;DHT22;38393;52.404;13.532;2023-04-15T00:36:24;8.50;99.90
52481;DHT22;38393;52.404;13.532;2023-04-15T00:38:50;8.60;99.90
52481;DHT22;38393;52.404;13.532;2023-04-15T00:41:17;8.60;99.90
52481;DHT22;38393;52.404;13.532;2023-04-15T00:43:43;8.50;99.90
52481;DHT22;38393;52.404;13.532;2023-04-15T00:46:09;8.40;99.90
52481;DHT22;38393;52.404;13.532;2023-04-15T00:48:37;8.60;99.90
52481;DHT22;38393;52.404;13.532;2023-04-15T00:51:03;8.60;99.90
52481;DHT22;38393;52.404;13.532;2023-04-15T00:53:28;8.60;99.90
52481;DHT22;38393;52.404;13.532;2023-04-15T00:55:54;8.60;99.90
52481;DHT22;38393;52.404;13.532;2023-04-15T00:58:20;8.60;99.90
52481;DHT22;38393;52.404;13.532;2023-04-15T01:00:46;8.60;99.90
52481;DHT22;38393;52.404;13.532;2023-04-15T01:03:12;8.50;99.90
52481;DHT22;38393;52.404;13.532;2023-04-15T01:05:38;8.60;99.90
52481;DHT22;38393;52.404;13.532;2023-04-15T01:08:04;8.60;99.90
52481;DHT22;38393;52.404;13.532;2023-04-15T01:10:30;8.60;99.90
52481;DHT22;38393;52.404;13.532;2023-04-15T01:12:56;8.60;99.90
52481;DHT22;38393;52.404;13.532;2023-04-15T01:15:21;8.50;99.90
52481;DHT22;38393;52.404;13.532;2023-04-15T01:17:47;8.70;99.90
52481;DHT22;38393;52.404;13.532;2023-04-15T01:20:13;8.70;99.90
52481;DHT22;38393;52.404;13.532;2023-04-15T01:22:40;8.50;99.90
52481;DHT22;38393;52.404;13.532;2023-04-15T01:25:11;8.50;99.90
52481;DHT22;38393;52.404;13.532;2023-04-15T01:27:38;8.50;99.90
52481;DHT22;38393;52.404;13.532;2023-04-15T01:30:06;8.50;99.90
52481;DHT22;38393;52.404;13.532;2023-04-15T01:32:32;8.50;99.90
52481;DHT22;38393;52.404;13.532;2023-04-15T01:34:58;8.50;99.90
52481;DHT22;38393;52.404;13.532;2023-04-15T01:37:24;8.40;99.90
52481;DHT22;38393;52.404;13.532;2023-04-15T01:39:50;8.50;99.90
52481;DHT22;38393;52.404;13.532;2023-04-15T01:42:16;8.50;99.90
52481;DHT22;38393;52.404;13.532;2023-04-15T01:44:41;8.60;99.90
52481;DHT22;38393;52.404;13.532;2023-04-15T01:47:07;8.50;99.90
52481;DHT22;38393;52.404;13.532;2023-04-15T01:49:33;8.50;99.90
52481;DHT22;38393;52.404;13.532;2023-04-15T01:51:58;8.50;99.90
52481;DHT22;38393;52.404;13.532;2023-04-15T01:54:24;8.50;99.90
52481;DHT22;38393;52.404;13.532;2023-04-15T01:56:51;8.60;99.90
52481;DHT22;38393;52.404;13.532;2023-04-15T01:59:17;8.50;99.90
52481;DHT22;38393;52.404;13.532;2023-04-15T02:01:43;8.50;99.90
52481;DHT22;38393;52.404;13.532;2023-04-15T02:04:09;8.50;99.90
52481;DHT22;38393;52.404;13.532;2023-04-15T02:06:41;8.50;99.90
52481;DHT22;38393;52.404;13.532;2023-04-15T02:09:06;8.50;99.90
52481;DHT22;38393;52.404;13.532;2023-04-15T02:11:32;8.40;99.90
52481;DHT22;38393;52.404;13.532;2023-04-15T02:13:59;8.40;99.90
52481;DHT22;38393;52.404;13.532;2023-04-15T02:16:24;8.40;99.90
52481;DHT22;38393;52.404;13.532;2023-04-15T02:18:50;8.50;99.90
52481;DHT22;38393;52.404;13.532;2023-04-15T02:21:16;8.40;99.90
52481;DHT22;38393;52.404;13.532;2023-04-15T02:23:43;8.50;99.90
52481;DHT22;38393;52.404;13.532;2023-04-15T02:26:08;8.40;99.90
52481;DHT22;38393;52.404;13.532;2023-04-15T02:28:34;8.50;99.90
52481;DHT22;38393;52.404;13.532;2023-04-15T02:31:00;8.50;99.90
52481;DHT22;38393;52.404;13.532;2023-04-15T02:33:29;8.50;99.90
52481;DHT22;38393;52.404;13.532;2023-04-15T02:35:56;8.50;99.90
52481;DHT22;38393;52.404;13.532;2023-04-15T02:38:22;8.50;99.90
52481;DHT22;38393;52.404;13.532;2023-04-15T02:40:47;8.60;99.90
52481;DHT22;38393;52.404;13.532;2023-04-15T02:43:14;8.50;99.90
52481;DHT22;38393;52.404;13.532;2023-04-15T02:45:41;8.50;99.90
52481;DHT22;38393;52.404;13.532;2023-04-15T02:48:07;8.60;99.90
52481;DHT22;38393;52.404;13.532;2023-04-15T02:50:33;8.40;99.90
52481;DHT22;38393;52.404;13.532;2023-04-15T02:52:59;8.60;99.90
52481;DHT22;38393;52.404;13.532;2023-04-15T02:55:25;8.60;99.90
52481;DHT22;38393;52.404;13.532;2023-04-15T02:57:51;8.60;99.90
52481;DHT22;38393;52.404;13.532;2023-04-15T03:00:16;8.60;99.90
52481;DHT22;38393;52.404;13.532;2023-04-15T03:02:42;8.60;99.90
52481;DHT22;38393;52.404;13.532;2023-04-15T03:05:12;8.60;99.90
52481;DHT22;38393;52.404;13.532;2023-04-15T03:07:38;8.70;99.90
52481;DHT22;38393;52.404;13.532;2023-04-15T03:10:06;8.60;99.90
52481;DHT22;38393;52.404;13.532;2023-04-15T03:12:31;8.70;99.90
52481;DHT22;38393;52.404;13.532;2023-04-15T03:14:57;8.70;99.90
52481;DHT22;38393;52.404;13.532;2023-04-15T03:17:22;8.70;99.90
52481;DHT22;38393;52.404;13.532;2023-04-15T03:19:48;8.70;99.90
52481;DHT22;38393;52.404;13.532;2023-04-15T03:22:13;8.70;99.90
52481;DHT22;38393;52.404;13.532;2023-04-15T03:24:39;8.80;99.90
52481;DHT22;38393;52.404;13.532;2023-04-15T03:27:04;8.70;99.90
52481;DHT22;38393;52.404;13.532;2023-04-15T03:29:32;8.70;99.90
52481;DHT22;38393;52.404;13.532;2023-04-15T03:31:57;8.70;99.90
52481;DHT22;38393;52.404;13.532;2023-04-15T03:34:23;8.70;99.90
52481;DHT22;38393;52.404;13.532;2023-04-15T03:36:48;8.70;99.90
52481;DHT22;38393;52.404;13.532;2023-04-15T03:39:14;8.80;99.90
52481;DHT22;38393;52.404;13.532;2023-04-15T03:41:40;8.70;99.90
52481;DHT22;38393;52.404;13.532;2023-04-15T03:44:05;8.80;99.90
52481;DHT22;38393;52.404;13.532;2023-04-15T03:46:31;9.00;99.90
52481;DHT22;38393;52.404;13.532;2023-04-15T03:48:56;8.70;99.90
52481;DHT22;38393;52.404;13.532;2023-04-15T03:51:21;8.80;99.90
52481;DHT22;38393;52.404;13.532;2023-04-15T03:53:47;8.80;99.90
52481;DHT22;38393;52.404;13.532;2023-04-15T03:56:12;8.90;99.90
52481;DHT22;38393;52.404;13.532;2023-04-15T03:58:38;8.90;99.90
52481;DHT22;38393;52.404;13.532;2023-04-15T04:01:03;8.80;99.90
52481;DHT22;38393;52.404;13.532;2023-04-15T04:03:29;8.80;99.90
52481;DHT22;38393;52.404;13.532;2023-04-15T04:05:54;8.80;99.90
52481;DHT22;38393;52.404;13.532;2023-04-15T04:08:20;8.90;99.90
52481;DHT22;38393;52.404;13.532;2023-04-15T04:10:46;8.80;99.90
52481;DHT22;38393;52.404;13.532;2023-04-15T04:13:12;8.70;99.90
52481;DHT22;38393;52.404;13.532;2023-04-15T04:15:37;8.80;99.90
52481;DHT22;38393;52.404;13.532;2023-04-15T04:18:02;8.90;99.90
52481;DHT22;38393;52.404;13.532;2023-04-15T04:20:28;8.90;99.90
52481;DHT22;38393;52.404;13.532;2023-04-15T04:22:56;8.90;99.90
52481;DHT22;38393;52.404;13.532;2023-04-15T04:25:21;8.90;99.90
52481;DHT22;38393;52.404;13.532;2023-04-15T04:27:47;9.00;99.90
52481;DHT22;38393;52.404;13.532;2023-04-15T04:30:12;8.90;99.90
52481;DHT22;38393;52.404;13.532;2023-04-15T04:32:38;8.90;99.90
52481;DHT22;38393;52.404;13.532;2023-04-15T04:35:03;8.90;99.90
52481;DHT22;38393;52.404;13.532;2023-04-15T04:37:29;8.90;99.90
52481;DHT22;38393;52.404;13.532;2023-04-15T04:39:55;8.90;99.90
52481;DHT22;38393;52.404;13.532;2023-04-15T04:42:21;8.90;99.90
52481;DHT22;38393;52.404;13.532;2023-04-15T04:44:46;9.10;99.90
52481;DHT22;38393;52.404;13.532;2023-04-15T04:47:12;9.00;99.90
52481;DHT22;38393;52.404;13.532;2023-04-15T04:49:38;9.00;99.90
52481;DHT22;38393;52.404;13.532;2023-04-15T04:52:03;9.00;99.90
52481;DHT22;38393;52.404;13.532;2023-04-15T04:54:29;9.00;99.90
52481;DHT22;38393;52.404;13.532;2023-04-15T04:56:55;9.10;99.90
52481;DHT22;38393;52.404;13.532;2023-04-15T04:59:22;9.10;99.90
52481;DHT22;38393;52.404;13.532;2023-04-15T05:01:47;9.10;99.90
52481;DHT22;38393;52.404;13.532;2023-04-15T05:04:13;9.10;99.90
52481;DHT22;38393;52.404;13.532;2023-04-15T05:06:38;9.10;99.90
52481;DHT22;38393;52.404;13.532;2023-04-15T05:09:04;9.10;99.90
52481;DHT22;38393;52.404;13.532;2023-04-15T05:11:29;9.20;99.90
52481;DHT22;38393;52.404;13.532;2023-04-15T05:13:55;9.20;99.90
52481;DHT22;38393;52.404;13.532;2023-04-15T05:16:22;9.30;99.90
52481;DHT22;38393;52.404;13.532;2023-04-15T05:18:47;9.30;99.90
52481;DHT22;38393;52.404;13.532;2023-04-15T05:21:13;9.20;99.90
52481;DHT22;38393;52.404;13.532;2023-04-15T05:23:39;9.20;99.90
52481;DHT22;38393;52.404;13.532;2023-04-15T05:26:04;9.20;99.90
52481;DHT22;38393;52.404;13.532;2023-04-15T05:28:30;9.10;99.90
52481;DHT22;38393;52.404;13.532;2023-04-15T05:30:55;9.20;99.90
52481;DHT22;38393;52.404;13.532;2023-04-15T05:33:21;9.30;99.90
52481;DHT22;38393;52.404;13.532;2023-04-15T05:35:47;9.40;99.90
52481;DHT22;38393;52.404;13.532;2023-04-15T05:38:12;9.30;99.90
52481;DHT22;38393;52.404;13.532;2023-04-15T05:40:38;9.40;99.90
52481;DHT22;38393;52.404;13.532;2023-04-15T05:43:03;9.50;99.90
52481;DHT22;38393;52.404;13.532;2023-04-15T05:45:29;9.60;99.90
52481;DHT22;38393;52.404;13.532;2023-04-15T05:47:54;9.60;99.90
52481;DHT22;38393;52.404;13.532;2023-04-15T05:50:20;9.80;99.90
52481;DHT22;38393;52.404;13.532;2023-04-15T05:52:45;9.80;99.90
52481;DHT22;38393;52.404;13.532;2023-04-15T05:55:11;9.80;99.90
52481;DHT22;38393;52.404;13.532;2023-04-15T05:57:37;9.80;99.90
52481;DHT22;38393;52.404;13.532;2023-04-15T06:00:03;9.90;99.90
52481;DHT22;38393;52.404;13.532;2023-04-15T06:02:29;9.90;99.90
52481;DHT22;38393;52.404;13.532;2023-04-15T06:04:56;9.80;99.90
52481;DHT22;38393;52.404;13.532;2023-04-15T06:07:22;9.90;99.90
52481;DHT22;38393;52.404;13.532;2023-04-15T06:09:48;9.90;99.90
52481;DHT22;38393;52.404;13.532;2023-04-15T06:12:14;9.90;99.90
52481;DHT22;38393;52.404;13.532;2023-04-15T06:14:39;10.00;99.90
52481;DHT22;38393;52.404;13.532;2023-04-15T06:17:05;9.90;99.60
52481;DHT22;38393;52.404;13.532;2023-04-15T06:19:31;9.90;99.90
52481;DHT22;38393;52.404;13.532;2023-04-15T06:21:57;9.90;99.80
52481;DHT22;38393;52.404;13.532;2023-04-15T06:24:23;10.10;99.40
52481;DHT22;38393;52.404;13.532;2023-04-15T06:26:48;10.00;99.90
52481;DHT22;38393;52.404;13.532;2023-04-15T06:29:14;10.10;99.90
52481;DHT22;38393;52.404;13.532;2023-04-15T06:31:39;10.10;99.10
52481;DHT22;38393;52.404;13.532;2023-04-15T06:34:05;10.30;99.20
52481;DHT22;38393;52.404;13.532;2023-04-15T06:36:30;10.30;99.30
52481;DHT22;38393;52.404;13.532;2023-04-15T06:38:56;10.50;98.20
52481;DHT22;38393;52.404;13.532;2023-04-15T06:41:22;10.60;98.50
52481;DHT22;38393;52.404;13.532;2023-04-15T06:43:47;10.60;98.60
52481;DHT22;38393;52.404;13.532;2023-04-15T06:46:13;10.80;98.40
52481;DHT22;38393;52.404;13.532;2023-04-15T06:48:38;10.70;98.10
52481;DHT22;38393;52.404;13.532;2023-04-15T06:51:04;10.80;97.70
52481;DHT22;38393;52.404;13.532;2023-04-15T06:53:30;10.90;98.00
52481;DHT22;38393;52.404;13.532;2023-04-15T06:55:55;10.80;97.40
52481;DHT22;38393;52.404;13.532;2023-04-15T06:58:21;10.70;97.90
52481;DHT22;38393;52.404;13.532;2023-04-15T07:00:47;10.90;98.10
52481;DHT22;38393;52.404;13.532;2023-04-15T07:03:13;10.90;97.50
52481;DHT22;38393;52.404;13.532;2023-04-15T07:05:39;11.00;97.60
52481;DHT22;38393;52.404;13.532;2023-04-15T07:08:05;10.90;97.80
52481;DHT22;38393;52.404;13.532;2023-04-15T07:10:32;10.80;97.50
52481;DHT22;38393;52.404;13.532;2023-04-15T07:12:58;10.70;97.60
52481;DHT22;38393;52.404;13.532;2023-04-15T07:15:23;10.70;97.80
52481;DHT22;38393;52.404;13.532;2023-04-15T07:17:49;10.80;97.90
52481;DHT22;38393;52.404;13.532;2023-04-15T07:20:14;10.70;98.10
52481;DHT22;38393;52.404;13.532;2023-04-15T07:22:40;10.60;98.20
52481;DHT22;38393;52.404;13.532;2023-04-15T07:25:06;10.50;98.30
52481;DHT22;38393;52.404;13.532;2023-04-15T07:27:32;10.50;98.70
52481;DHT22;38393;52.404;13.532;2023-04-15T07:29:57;10.50;98.10
52481;DHT22;38393;52.404;13.532;2023-04-15T07:32:23;10.60;98.40
52481;DHT22;38393;52.404;13.532;2023-04-15T07:34:48;10.60;98.20
52481;DHT22;38393;52.404;13.532;2023-04-15T07:37:14;10.50;98.10
52481;DHT22;38393;52.404;13.532;2023-04-15T07:39:39;10.50;98.20
52481;DHT22;38393;52.404;13.532;2023-04-15T07:42:05;10.50;98.50
52481;DHT22;38393;52.404;13.532;2023-04-15T07:44:31;10.50;98.10
52481;DHT22;38393;52.404;13.532;2023-04-15T07:46:56;10.50;98.10
52481;DHT22;38393;52.404;13.532;2023-04-15T07:49:22;10.30;98.70
52481;DHT22;38393;52.404;13.532;2023-04-15T07:51:47;10.30;98.90
52481;DHT22;38393;52.404;13.532;2023-04-15T07:54:13;10.30;98.90
52481;DHT22;38393;52.404;13.532;2023-04-15T07:56:39;10.50;98.60
52481;DHT22;38393;52.404;13.532;2023-04-15T07:59:05;10.20;98.30
52481;DHT22;38393;52.404;13.532;2023-04-15T08:01:31;10.30;99.00
52481;DHT22;38393;52.404;13.532;2023-04-15T08:03:57;10.20;99.10
52481;DHT22;38393;52.404;13.532;2023-04-15T08:06:23;10.30;98.90
52481;DHT22;38393;52.404;13.532;2023-04-15T08:08:48;10.20;98.70
52481;DHT22;38393;52.404;13.532;2023-04-15T08:11:14;10.20;99.10
52481;DHT22;38393;52.404;13.532;2023-04-15T08:13:39;10.40;99.20
52481;DHT22;38393;52.404;13.532;2023-04-15T08:16:22;10.30;99.00
52481;DHT22;38393;52.404;13.532;2023-04-15T08:18:49;10.40;98.60
52481;DHT22;38393;52.404;13.532;2023-04-15T08:21:16;10.40;98.60
52481;DHT22;38393;52.404;13.532;2023-04-15T08:23:43;10.60;98.50
52481;DHT22;38393;52.404;13.532;2023-04-15T08:26:08;10.70;98.60
52481;DHT22;38393;52.404;13.532;2023-04-15T08:28:34;10.70;98.30
52481;DHT22;38393;52.404;13.532;2023-04-15T08:31:00;10.60;98.00
52481;DHT22;38393;52.404;13.532;2023-04-15T08:33:26;10.60;98.10
52481;DHT22;38393;52.404;13.532;2023-04-15T08:35:53;10.50;98.40
52481;DHT22;38393;52.404;13.532;2023-04-15T08:38:18;10.40;98.60
52481;DHT22;38393;52.404;13.532;2023-04-15T08:40:44;10.30;98.30
52481;DHT22;38393;52.404;13.532;2023-04-15T08:43:14;10.40;98.40
52481;DHT22;38393;52.404;13.532;2023-04-15T08:45:43;10.30;98.50
52481;DHT22;38393;52.404;13.532;2023-04-15T08:48:14;10.40;98.90
52481;DHT22;38393;52.404;13.532;2023-04-15T08:50:41;10.50;98.50
52481;DHT22;38393;52.404;13.532;2023-04-15T08:53:07;10.60;98.30
52481;DHT22;38393;52.404;13.532;2023-04-15T08:55:35;10.50;97.40
52481;DHT22;38393;52.404;13.532;2023-04-15T08:58:04;10.60;97.90
52481;DHT22;38393;52.404;13.532;2023-04-15T09:00:31;10.70;98.10
52481;DHT22;38393;52.404;13.532;2023-04-15T09:02:58;10.70;97.20
52481;DHT22;38393;52.404;13.532;2023-04-15T09:05:24;10.70;97.60
52481;DHT22;38393;52.404;13.532;2023-04-15T09:07:50;10.60;97.90
52481;DHT22;38393;52.404;13.532;2023-04-15T09:10:15;10.70;97.80
52481;DHT22;38393;52.404;13.532;2023-04-15T09:12:41;10.80;97.40
52481;DHT22;38393;52.404;13.532;2023-04-15T09:15:07;10.90;97.10
52481;DHT22;38393;52.404;13.532;2023-04-15T09:17:41;10.90;97.70
52481;DHT22;38393;52.404;13.532;2023-04-15T09:20:12;11.00;98.20
52481;DHT22;38393;52.404;13.532;2023-04-15T09:22:39;11.10;97.40
52481;DHT22;38393;52.404;13.532;2023-04-15T09:25:25;11.00;97.60
52481;DHT22;38393;52.404;13.532;2023-04-15T09:27:53;11.10;97.60
52481;DHT22;38393;52.404;13.532;2023-04-15T09:30:19;11.20;96.90
52481;DHT22;38393;52.404;13.532;2023-04-15T09:32:56;11.10;97.30
52481;DHT22;38393;52.404;13.532;2023-04-15T09:35:22;11.00;97.90
52481;DHT22;38393;52.404;13.532;2023-04-15T09:37:49;10.80;98.10
52481;DHT22;38393;52.404;13.532;2023-04-15T09:40:30;10.80;98.90
52481;DHT22;38393;52.404;13.532;2023-04-15T09:42:57;10.90;98.80
52481;DHT22;38393;52.404;13.532;2023-04-15T09:45:22;10.80;98.70
52481;DHT22;38393;52.404;13.532;2023-04-15T09:47:48;10.70;99.10
52481;DHT22;38393;52.404;13.532;2023-04-15T09:50:16;10.70;99.40
52481;DHT22;38393;52.404;13.532;2023-04-15T09:52:42;10.90;99.50
52481;DHT22;38393;52.404;13.532;2023-04-15T09:55:08;11.00;98.90
52481;DHT22;38393;52.404;13.532;2023-04-15T09:57:34;10.90;99.10
52481;DHT22;38393;52.404;13.532;2023-04-15T10:00:03;10.80;99.10
52481;DHT22;38393;52.404;13.532;2023-04-15T10:02:29;10.90;98.80
52481;DHT22;38393;52.404;13.532;2023-04-15T10:04:56;11.10;98.80
52481;DHT22;38393;52.404;13.532;2023-04-15T10:07:22;10.90;98.90
52481;DHT22;38393;52.404;13.532;2023-04-15T10:09:48;10.90;99.30
52481;DHT22;38393;52.404;13.532;2023-04-15T10:12:16;10.90;98.70
52481;DHT22;38393;52.404;13.532;2023-04-15T10:14:41;11.10;98.80
52481;DHT22;38393;52.404;13.532;2023-04-15T10:17:10;11.00;99.20
52481;DHT22;38393;52.404;13.532;2023-04-15T10:19:37;10.90;98.90
52481;DHT22;38393;52.404;13.532;2023-04-15T10:22:03;10.90;99.40
52481;DHT22;38393;52.404;13.532;2023-04-15T10:24:30;11.00;99.10
52481;DHT22;38393;52.404;13.532;2023-04-15T10:26:58;11.00;99.10
52481;DHT22;38393;52.404;13.532;2023-04-15T10:29:24;11.10;99.20
52481;DHT22;38393;52.404;13.532;2023-04-15T10:31:54;11.20;98.70
52481;DHT22;38393;52.404;13.532;2023-04-15T10:34:21;11.10;98.80
52481;DHT22;38393;52.404;13.532;2023-04-15T10:36:48;11.00;99.10
52481;DHT22;38393;52.404;13.532;2023-04-15T10:42:08;10.80;99.10
52481;DHT22;38393;52.404;13.532;2023-04-15T10:44:36;11.00;99.20
52481;DHT22;38393;52.404;13.532;2023-04-15T10:50:00;11.00;99.30
52481;DHT22;38393;52.404;13.532;2023-04-15T10:52:27;10.80;99.40
52481;DHT22;38393;52.404;13.532;2023-04-15T10:55:13;10.90;99.30
52481;DHT22;38393;52.404;13.532;2023-04-15T10:57:41;10.80;99.40
52481;DHT22;38393;52.404;13.532;2023-04-15T11:00:14;10.80;99.90
52481;DHT22;38393;52.404;13.532;2023-04-15T11:05:16;10.90;99.50
52481;DHT22;38393;52.404;13.532;2023-04-15T11:07:55;10.80;99.80
52481;DHT22;38393;52.404;13.532;2023-04-15T11:13:03;10.70;99.90
52481;DHT22;38393;52.404;13.532;2023-04-15T11:17:58;10.80;99.90
52481;DHT22;38393;52.404;13.532;2023-04-15T11:20:24;10.80;99.90
52481;DHT22;38393;52.404;13.532;2023-04-15T11:22:50;10.90;99.90
52481;DHT22;38393;52.404;13.532;2023-04-15T11:25:24;11.00;99.90
52481;DHT22;38393;52.404;13.532;2023-04-15T11:27:50;11.00;99.90
52481;DHT22;38393;52.404;13.532;2023-04-15T11:30:21;10.90;99.90
52481;DHT22;38393;52.404;13.532;2023-04-15T11:32:48;10.90;99.90
52481;DHT22;38393;52.404;13.532;2023-04-15T11:35:15;10.80;99.90
52481;DHT22;38393;52.404;13.532;2023-04-15T11:37:40;10.90;99.90
52481;DHT22;38393;52.404;13.532;2023-04-15T11:40:08;10.90;99.90
52481;DHT22;38393;52.404;13.532;2023-04-15T11:42:33;11.10;99.90
52481;DHT22;38393;52.404;13.532;2023-04-15T11:45:06;11.10;99.90
52481;DHT22;38393;52.404;13.532;2023-04-15T11:47:32;11.10;99.60
52481;DHT22;38393;52.404;13.532;2023-04-15T11:50:13;11.10;99.90
52481;DHT22;38393;52.404;13.532;2023-04-15T11:52:39;11.20;99.90
52481;DHT22;38393;52.404;13.532;2023-04-15T11:55:06;11.20;99.90
52481;DHT22;38393;52.404;13.532;2023-04-15T11:57:34;11.20;99.80
52481;DHT22;38393;52.404;13.532;2023-04-15T11:59:59;11.20;99.90
52481;DHT22;38393;52.404;13.532;2023-04-15T12:02:31;11.20;99.90
52481;DHT22;38393;52.404;13.532;2023-04-15T12:05:04;11.30;99.90
52481;DHT22;38393;52.404;13.532;2023-04-15T12:07:30;11.30;99.90
52481;DHT22;38393;52.404;13.532;2023-04-15T12:09:56;11.30;99.90
52481;DHT22;38393;52.404;13.532;2023-04-15T12:12:26;11.20;99.90
52481;DHT22;38393;52.404;13.532;2023-04-15T12:14:52;11.30;99.70
52481;DHT22;38393;52.404;13.532;2023-04-15T12:17:18;11.30;99.80
52481;DHT22;38393;52.404;13.532;2023-04-15T12:19:43;11.30;99.90
52481;DHT22;38393;52.404;13.532;2023-04-15T12:22:15;11.50;99.30
52481;DHT22;38393;52.404;13.532;2023-04-15T12:24:42;11.50;99.50
52481;DHT22;38393;52.404;13.532;2023-04-15T12:27:10;11.50;99.50
52481;DHT22;38393;52.404;13.532;2023-04-15T12:29:37;11.50;98.90
52481;DHT22;38393;52.404;13.532;2023-04-15T12:32:11;11.40;99.70
52481;DHT22;38393;52.404;13.532;2023-04-15T12:34:51;11.50;99.80
52481;DHT22;38393;52.404;13.532;2023-04-15T12:37:16;11.60;99.40
52481;DHT22;38393;52.404;13.532;2023-04-15T12:39:47;11.70;99.50
52481;DHT22;38393;52.404;13.532;2023-04-15T12:42:13;11.60;99.50
52481;DHT22;38393;52.404;13.532;2023-04-15T12:44:39;11.80;99.10
52481;DHT22;38393;52.404;13.532;2023-04-15T12:47:06;11.80;98.60
52481;DHT22;38393;52.404;13.532;2023-04-15T12:49:32;11.70;99.00
52481;DHT22;38393;52.404;13.532;2023-04-15T12:51:59;11.80;99.00
52481;DHT22;38393;52.404;13.532;2023-04-15T12:54:25;11.70;98.70
52481;DHT22;38393;52.404;13.532;2023-04-15T12:56:51;11.60;99.20
52481;DHT22;38393;52.404;13.532;2023-04-15T12:59:17;11.70;99.30
52481;DHT22;38393;52.404;13.532;2023-04-15T13:01:43;11.60;98.80
52481;DHT22;38393;52.404;13.532;2023-04-15T13:04:09;11.60;99.00
52481;DHT22;38393;52.404;13.532;2023-04-15T13:06:35;11.60;99.00
52481;DHT22;38393;52.404;13.532;2023-04-15T13:09:01;11.60;99.40
52481;DHT22;38393;52.404;13.532;2023-04-15T13:11:28;11.80;99.30
52481;DHT22;38393;52.404;13.532;2023-04-15T13:13:57;11.50;99.30
52481;DHT22;38393;52.404;13.532;2023-04-15T13:16:23;11.70;99.20
52481;DHT22;38393;52.404;13.532;2023-04-15T13:18:49;11.70;99.30
52481;DHT22;38393;52.404;13.532;2023-04-15T13:21:15;12.00;98.70
52481;DHT22;38393;52.404;13.532;2023-04-15T13:23:41;12.30;98.40
52481;DHT22;38393;52.404;13.532;2023-04-15T13:26:06;12.20;98.00
52481;DHT22;38393;52.404;13.532;2023-04-15T13:28:32;12.20;97.90
52481;DHT22;38393;52.404;13.532;2023-04-15T13:30:58;12.10;98.50
52481;DHT22;38393;52.404;13.532;2023-04-15T13:33:24;12.10;99.00
52481;DHT22;38393;52.404;13.532;2023-04-15T13:35:50;12.30;98.60
52481;DHT22;38393;52.404;13.532;2023-04-15T13:38:15;12.30;98.00
52481;DHT22;38393;52.404;13.532;2023-04-15T13:40:40;12.20;98.80
52481;DHT22;38393;52.404;13.532;2023-04-15T13:43:06;12.30;97.80
52481;DHT22;38393;52.404;13.532;2023-04-15T13:45:31;12.60;97.20
52481;DHT22;38393;52.404;13.532;2023-04-15T13:47:57;12.40;96.50
52481;DHT22;38393;52.404;13.532;2023-04-15T13:50:23;12.50;97.10
52481;DHT22;38393;52.404;13.532;2023-04-15T13:52:48;12.30;97.30
52481;DHT22;38393;52.404;13.532;2023-04-15T13:55:14;12.30;97.40
52481;DHT22;38393;52.404;13.532;2023-04-15T13:57:39;12.40;98.20
52481;DHT22;38393;52.404;13.532;2023-04-15T14:00:05;12.60;97.70
52481;DHT22;38393;52.404;13.532;2023-04-15T14:02:31;12.50;96.90
52481;DHT22;38393;52.404;13.532;2023-04-15T14:04:57;12.50;97.20
52481;DHT22;38393;52.404;13.532;2023-04-15T14:07:22;12.30;96.80
52481;DHT22;38393;52.404;13.532;2023-04-15T14:09:48;12.00;98.00
52481;DHT22;38393;52.404;13.532;2023-04-15T14:12:13;11.80;98.30
52481;DHT22;38393;52.404;13.532;2023-04-15T14:14:39;11.70;99.00
52481;DHT22;38393;52.404;13.532;2023-04-15T14:17:05;11.60;98.80
52481;DHT22;38393;52.404;13.532;2023-04-15T14:19:31;11.60;99.10
52481;DHT22;38393;52.404;13.532;2023-04-15T14:21:57;11.70;99.20
52481;DHT22;38393;52.404;13.532;2023-04-15T14:24:23;11.70;98.80
52481;DHT22;38393;52.404;13.532;2023-04-15T14:26:48;11.90;99.20
52481;DHT22;38393;52.404;13.532;2023-04-15T14:29:14;11.90;99.10
52481;DHT22;38393;52.404;13.532;2023-04-15T14:31:41;11.90;98.90
52481;DHT22;38393;52.404;13.532;2023-04-15T14:34:06;12.00;98.40
52481;DHT22;38393;52.404;13.532;2023-04-15T14:36:32;12.00;98.60
52481;DHT22;38393;52.404;13.532;2023-04-15T14:38:57;12.10;98.40
52481;DHT22;38393;52.404;13.532;2023-04-15T14:41:23;11.90;99.00
52481;DHT22;38393;52.404;13.532;2023-04-15T14:43:48;11.90;99.10
52481;DHT22;38393;52.404;13.532;2023-04-15T14:46:14;12.00;97.80
52481;DHT22;38393;52.404;13.532;2023-04-15T14:48:40;11.90;98.70
52481;DHT22;38393;52.404;13.532;2023-04-15T14:51:06;11.70;98.80
52481;DHT22;38393;52.404;13.532;2023-04-15T14:53:32;11.80;98.50
52481;DHT22;38393;52.404;13.532;2023-04-15T14:55:57;11.90;98.30
52481;DHT22;38393;52.404;13.532;2023-04-15T14:58:23;12.00;98.10
52481;DHT22;38393;52.404;13.532;2023-04-15T15:00:48;11.90;97.60
52481;DHT22;38393;52.404;13.532;2023-04-15T15:03:14;11.80;98.00
52481;DHT22;38393;52.404;13.532;2023-04-15T15:05:41;11.80;97.90
52481;DHT22;38393;52.404;13.532;2023-04-15T15:08:08;11.90;98.10
52481;DHT22;38393;52.404;13.532;2023-04-15T15:10:34;12.00;97.90
52481;DHT22;38393;52.404;13.532;2023-04-15T15:13:05;12.00;98.20
52481;DHT22;38393;52.404;13.532;2023-04-15T15:15:31;12.10;97.50
52481;DHT22;38393;52.404;13.532;2023-04-15T15:17:56;12.10;97.80
52481;DHT22;38393;52.404;13.532;2023-04-15T15:20:22;11.80;97.00
52481;DHT22;38393;52.404;13.532;2023-04-15T15:22:48;11.80;97.70
52481;DHT22;38393;52.404;13.532;2023-04-15T15:25:13;11.80;98.00
52481;DHT22;38393;52.404;13.532;2023-04-15T15:27:39;11.80;97.70
52481;DHT22;38393;52.404;13.532;2023-04-15T15:30:05;11.80;97.50
52481;DHT22;38393;52.404;13.532;2023-04-15T15:32:31;11.70;97.60